METAR Data
IDs: Format: Raw Decoded Include TAF

Data at: 1037 UTC 18 Jan 2019

PAVD 180956Z AUTO 25006KT 10SM CLR M05/M09 A2958 RMK AO2 SLP042 T10501094 FZRANO
PAVD 180856Z AUTO 20004KT 10SM CLR M04/M09 A2958 RMK AO2 SLP043 T10391094 53003 FZRANO
PAVD 180756Z AUTO 00000KT 10SM CLR M04/M08 A2958 RMK AO2 SLP042 T10441083 400001094 FZRANO
PAVD 180656Z 31007KT 10SM CLR M05/M08 A2957 RMK AO2 SLP040 T10501083
PAVD 180556Z 00000KT 10SM CLR M06/M08 A2957 RMK AO2 SLP040 T10561083 11022 21072 53000
PAVD 180456Z 00000KT 10SM CLR M06/M09 A2957 RMK AO2 SLP038 T10611094
PAVD 180356Z 24005KT 10SM CLR M03/M07 A2958 RMK AO2 SLP041 T10281072
PAVD 180256Z 24005KT 10SM CLR M04/M07 A2957 RMK AO2 SLP040 T10441072 58005
PAVD 180156Z 07003KT 10SM CLR M05/M08 A2958 RMK AO2 SLP041 BLSN FRM MT TOPS T10501078
PAVD 180056Z 12004KT 10SM CLR M05/M07 A2958 RMK AO2 SLP043 BLSN FRM MT TOPS T10501072
PAVD 172356Z 00000KT 10SM CLR M02/M07 A2959 RMK AO2 SLP044 BLSN FRM MT TOPS T10171067 10000 21089 56013
PAVD 172256Z 00000KT 10SM CLR M01/M06 A2960 RMK AO2 SLP049 T10061061
PAVD 172156Z 20004KT 10SM CLR M02/M06 A2961 RMK AO2 SLP053 T10171056
PAVD 172056Z 00000KT 10SM CLR M05/M08 A2963 RMK AO2 SLP057 T10501078 57011
PAVD 171956Z 24005KT 10SM CLR M07/M08 A2964 RMK AO2 SLP061 T10671078
PAVD 171856Z 00000KT 10SM FEW027 M08/M09 A2965 RMK AO2 SLP064 T10831094
PAVD 171756Z 09004KT 10SM FEW027 M08/M09 A2966 RMK AO2 SLP068 T10831094 11022 21094 56016
PAVD 171656Z 00000KT 10SM FEW025 M07/M08 A2967 RMK AO2 SLP071 T10721078
PAVD 171556Z 00000KT 10SM CLR M07/M08 A2969 RMK AO2 SLP078 T10721083
PAVD 171510Z 00000KT 10SM FEW040 M07/M09 A2970 RMK AO2
PAVD 171456Z AUTO 06003KT 10SM CLR M07/M08 A2970 RMK AO2 SLP083 T10671083 58013 FZRANO
PAVD 171356Z AUTO 00000KT 10SM BKN034 M05/M07 A2972 RMK AO2 SLP089 T10501067 FZRANO
PAVD 171256Z AUTO 08003KT 10SM OVC036 M04/M07 A2973 RMK AO2 SLP094 T10441067 FZRANO
PAVD 171156Z AUTO 14003KT 10SM OVC036 M02/M06 A2974 RMK AO2 SLP096 70001 T10221056 11011 21044 58011 FZRANO
PAVD 171056Z AUTO 00000KT 10SM OVC036 M02/M06 A2975 RMK AO2 SLP100 T10171056 FZRANO
PAVD 170956Z AUTO 11003KT 10SM OVC038 M03/M05 A2976 RMK AO2 SLP103 T10281050 FZRANO
PAVD 170856Z AUTO 00000KT 10SM OVC042 M04/M06 A2977 RMK AO2 SLP107 T10391056 56007 FZRANO
PAVD 170756Z AUTO 27003KT 10SM CLR M03/M04 A2978 RMK AO2 SLP109 T10281044 400061033 FZRANO
PAVD 170656Z 35004KT 10SM BKN065 BKN100 M01/M04 A2978 RMK AO2 SLP110 T10111039
PAVD 170556Z 00000KT 10SM BKN060 BKN100 M01/M04 A2979 RMK AO2 SLP114 60001 T10111039 10006 21011 56003
PAVD 170456Z 00000KT 10SM BKN060 BKN100 M01/M04 A2979 RMK AO2 SLP114 T10111044
PAVD 170356Z 00000KT 10SM SCT045 BKN070 BKN100 M01/M04 A2979 RMK AO2 SLP114 SNE10 T10061044
PAVD 170256Z 00000KT 10SM SCT045 BKN070 BKN100 00/M04 A2980 RMK AO2 SNE53 SLP117 SNE10 P0000 60001 T00001044 50002
PAVD 170156Z 04003KT 10SM -SN SCT040 BKN060 OVC090 00/M04 A2981 RMK AO2 RAB14E51SNB53 SLP119 SNB40 P0000 T00001039
PAVD 170056Z 00000KT 10SM BKN070 OVC090 00/M04 A2980 RMK AO2 SLP118 P0001 T00001039
PAVD 162356Z 00000KT 10SM BKN065 OVC090 01/M04 A2980 RMK AO2 SLP115 60000 T00061044 10006 21011 53001
PAVD 162256Z 09003KT 10SM BKN065 OVC080 01/M04 A2979 RMK AO2 UPE2158 SLP112 P0000 T00061044